sensor_id;sensor_type;location;lat;lon;timestamp;temperature;humidity
74178;DHT22;62540;48.456;-4.456;2023-03-01T00:01:18;6.42;76.82
74178;DHT22;62540;48.456;-4.456;2023-03-01T00:03:43;6.36;76.71
74178;DHT22;62540;48.456;-4.456;2023-03-01T00:06:09;6.38;76.76
74178;DHT22;62540;48.456;-4.456;2023-03-01T00:08:35;6.38;76.80
74178;DHT22;62540;48.456;-4.456;2023-03-01T00:11:10;6.41;76.72
74178;DHT22;62540;48.456;-4.456;2023-03-01T00:13:36;6.41;76.74
74178;DHT22;62540;48.456;-4.456;2023-03-01T00:16:06;6.41;76.66
74178;DHT22;62540;48.456;-4.456;2023-03-01T00:18:33;6.36;76.71
74178;DHT22;62540;48.456;-4.456;2023-03-01T00:20:59;6.27;76.85
74178;DHT22;62540;48.456;-4.456;2023-03-01T00:23:24;6.29;76.69
74178;DHT22;62540;48.456;-4.456;2023-03-01T00:25:50;6.28;76.73
74178;DHT22;62540;48.456;-4.456;2023-03-01T00:28:17;6.28;76.39
74178;DHT22;62540;48.456;-4.456;2023-03-01T00:30:42;6.24;76.35
74178;DHT22;62540;48.456;-4.456;2023-03-01T00:33:08;6.28;76.29
74178;DHT22;62540;48.456;-4.456;2023-03-01T00:35:33;6.24;76.20
74178;DHT22;62540;48.456;-4.456;2023-03-01T00:37:59;6.22;76.23
74178;DHT22;62540;48.456;-4.456;2023-03-01T00:40:28;6.20;76.46
74178;DHT22;62540;48.456;-4.456;2023-03-01T00:42:54;6.20;76.40
74178;DHT22;62540;48.456;-4.456;2023-03-01T00:45:20;6.18;76.68
74178;DHT22;62540;48.456;-4.456;2023-03-01T00:47:46;6.20;76.50
74178;DHT22;62540;48.456;-4.456;2023-03-01T00:50:12;6.22;75.97
74178;DHT22;62540;48.456;-4.456;2023-03-01T00:52:38;6.22;75.90
74178;DHT22;62540;48.456;-4.456;2023-03-01T00:55:04;6.24;75.81
74178;DHT22;62540;48.456;-4.456;2023-03-01T00:57:30;6.17;75.91
74178;DHT22;62540;48.456;-4.456;2023-03-01T00:59:56;6.14;75.86
74178;DHT22;62540;48.456;-4.456;2023-03-01T01:02:22;6.15;75.87
74178;DHT22;62540;48.456;-4.456;2023-03-01T01:04:47;6.11;76.04
74178;DHT22;62540;48.456;-4.456;2023-03-01T01:07:14;6.14;75.99
74178;DHT22;62540;48.456;-4.456;2023-03-01T01:09:40;6.15;75.87
74178;DHT22;62540;48.456;-4.456;2023-03-01T01:12:06;6.08;75.73
74178;DHT22;62540;48.456;-4.456;2023-03-01T01:14:32;6.14;76.08
74178;DHT22;62540;48.456;-4.456;2023-03-01T01:16:58;6.13;76.08
74178;DHT22;62540;48.456;-4.456;2023-03-01T01:19:24;6.06;76.02
74178;DHT22;62540;48.456;-4.456;2023-03-01T01:21:50;6.11;75.76
74178;DHT22;62540;48.456;-4.456;2023-03-01T01:24:16;6.11;75.77
74178;DHT22;62540;48.456;-4.456;2023-03-01T01:26:42;6.11;75.37
74178;DHT22;62540;48.456;-4.456;2023-03-01T01:29:08;6.11;75.52
74178;DHT22;62540;48.456;-4.456;2023-03-01T01:31:35;6.10;75.34
74178;DHT22;62540;48.456;-4.456;2023-03-01T01:34:02;6.11;74.58
74178;DHT22;62540;48.456;-4.456;2023-03-01T01:36:28;6.03;73.87
74178;DHT22;62540;48.456;-4.456;2023-03-01T01:38:53;5.97;73.08
74178;DHT22;62540;48.456;-4.456;2023-03-01T01:41:20;5.90;71.46
74178;DHT22;62540;48.456;-4.456;2023-03-01T01:43:49;5.83;70.76
74178;DHT22;62540;48.456;-4.456;2023-03-01T01:46:18;5.76;70.00
74178;DHT22;62540;48.456;-4.456;2023-03-01T01:48:59;5.70;69.96
74178;DHT22;62540;48.456;-4.456;2023-03-01T01:51:30;5.65;69.59
74178;DHT22;62540;48.456;-4.456;2023-03-01T01:54:26;5.59;68.87
74178;DHT22;62540;48.456;-4.456;2023-03-01T01:57:00;5.49;68.12
74178;DHT22;62540;48.456;-4.456;2023-03-01T01:59:28;5.38;67.57
74178;DHT22;62540;48.456;-4.456;2023-03-01T02:01:55;5.34;67.83
74178;DHT22;62540;48.456;-4.456;2023-03-01T02:04:21;5.24;67.97
74178;DHT22;62540;48.456;-4.456;2023-03-01T02:07:18;5.18;68.36
74178;DHT22;62540;48.456;-4.456;2023-03-01T02:09:46;5.08;68.45
74178;DHT22;62540;48.456;-4.456;2023-03-01T02:12:14;5.07;69.22
74178;DHT22;62540;48.456;-4.456;2023-03-01T02:14:40;4.95;69.25
74178;DHT22;62540;48.456;-4.456;2023-03-01T02:17:05;4.91;69.68
74178;DHT22;62540;48.456;-4.456;2023-03-01T02:19:40;4.84;69.83
74178;DHT22;62540;48.456;-4.456;2023-03-01T02:22:21;4.76;70.24
74178;DHT22;62540;48.456;-4.456;2023-03-01T02:27:58;4.53;70.19
74178;DHT22;62540;48.456;-4.456;2023-03-01T02:30:28;4.52;70.31
74178;DHT22;62540;48.456;-4.456;2023-03-01T02:32:56;4.56;70.46
74178;DHT22;62540;48.456;-4.456;2023-03-01T02:35:31;4.52;70.63
74178;DHT22;62540;48.456;-4.456;2023-03-01T02:37:58;4.54;70.76
74178;DHT22;62540;48.456;-4.456;2023-03-01T02:40:28;4.52;70.70
74178;DHT22;62540;48.456;-4.456;2023-03-01T02:42:56;4.53;70.87
74178;DHT22;62540;48.456;-4.456;2023-03-01T02:45:23;4.52;70.80
74178;DHT22;62540;48.456;-4.456;2023-03-01T02:47:49;4.50;70.91
74178;DHT22;62540;48.456;-4.456;2023-03-01T02:53:05;4.49;71.03
74178;DHT22;62540;48.456;-4.456;2023-03-01T02:55:33;4.46;71.08
74178;DHT22;62540;48.456;-4.456;2023-03-01T02:58:02;4.45;71.00
74178;DHT22;62540;48.456;-4.456;2023-03-01T03:00:39;4.42;71.05
74178;DHT22;62540;48.456;-4.456;2023-03-01T03:03:10;4.43;71.08
74178;DHT22;62540;48.456;-4.456;2023-03-01T03:05:35;4.46;70.98
74178;DHT22;62540;48.456;-4.456;2023-03-01T03:08:02;4.46;70.95
74178;DHT22;62540;48.456;-4.456;2023-03-01T03:10:33;4.48;70.91
74178;DHT22;62540;48.456;-4.456;2023-03-01T03:13:04;4.48;70.86
74178;DHT22;62540;48.456;-4.456;2023-03-01T03:15:30;4.48;70.85
74178;DHT22;62540;48.456;-4.456;2023-03-01T03:17:58;4.45;70.90
74178;DHT22;62540;48.456;-4.456;2023-03-01T03:20:26;4.40;70.96
74178;DHT22;62540;48.456;-4.456;2023-03-01T03:22:53;4.38;71.02
74178;DHT22;62540;48.456;-4.456;2023-03-01T03:25:20;4.38;71.06
74178;DHT22;62540;48.456;-4.456;2023-03-01T03:27:48;4.38;71.00
74178;DHT22;62540;48.456;-4.456;2023-03-01T03:30:17;4.35;71.10
74178;DHT22;62540;48.456;-4.456;2023-03-01T03:32:45;4.30;70.99
74178;DHT22;62540;48.456;-4.456;2023-03-01T03:35:23;4.26;71.14
74178;DHT22;62540;48.456;-4.456;2023-03-01T03:37:50;4.20;71.27
74178;DHT22;62540;48.456;-4.456;2023-03-01T03:40:36;4.12;71.32
74178;DHT22;62540;48.456;-4.456;2023-03-01T03:43:04;4.08;71.50
74178;DHT22;62540;48.456;-4.456;2023-03-01T03:45:30;4.03;71.59
74178;DHT22;62540;48.456;-4.456;2023-03-01T03:48:01;3.98;71.73
74178;DHT22;62540;48.456;-4.456;2023-03-01T03:50:28;3.94;71.72
74178;DHT22;62540;48.456;-4.456;2023-03-01T03:52:53;3.90;71.76
74178;DHT22;62540;48.456;-4.456;2023-03-01T03:55:19;3.88;71.64
74178;DHT22;62540;48.456;-4.456;2023-03-01T03:57:48;3.85;71.73
74178;DHT22;62540;48.456;-4.456;2023-03-01T04:00:21;3.84;71.61
74178;DHT22;62540;48.456;-4.456;2023-03-01T04:02:47;3.82;71.53
74178;DHT22;62540;48.456;-4.456;2023-03-01T04:05:15;3.78;71.56
74178;DHT22;62540;48.456;-4.456;2023-03-01T04:07:42;3.78;71.45
74178;DHT22;62540;48.456;-4.456;2023-03-01T04:10:10;3.78;71.37
74178;DHT22;62540;48.456;-4.456;2023-03-01T04:12:36;3.73;71.07
74178;DHT22;62540;48.456;-4.456;2023-03-01T04:15:04;3.70;71.13
74178;DHT22;62540;48.456;-4.456;2023-03-01T04:17:42;3.67;71.15
74178;DHT22;62540;48.456;-4.456;2023-03-01T04:20:14;3.64;70.94
74178;DHT22;62540;48.456;-4.456;2023-03-01T04:22:43;3.64;70.65
74178;DHT22;62540;48.456;-4.456;2023-03-01T04:25:12;3.57;70.36
74178;DHT22;62540;48.456;-4.456;2023-03-01T04:27:39;3.57;70.30
74178;DHT22;62540;48.456;-4.456;2023-03-01T04:30:06;3.53;70.16
74178;DHT22;62540;48.456;-4.456;2023-03-01T04:32:33;3.49;70.10
74178;DHT22;62540;48.456;-4.456;2023-03-01T04:34:58;3.47;69.85
74178;DHT22;62540;48.456;-4.456;2023-03-01T04:37:24;3.46;69.71
74178;DHT22;62540;48.456;-4.456;2023-03-01T04:39:50;3.43;69.66
74178;DHT22;62540;48.456;-4.456;2023-03-01T04:42:15;3.40;69.60
74178;DHT22;62540;48.456;-4.456;2023-03-01T04:44:42;3.39;69.38
74178;DHT22;62540;48.456;-4.456;2023-03-01T04:47:07;3.36;68.97
74178;DHT22;62540;48.456;-4.456;2023-03-01T04:49:33;3.36;69.05
74178;DHT22;62540;48.456;-4.456;2023-03-01T04:51:58;3.34;68.98
74178;DHT22;62540;48.456;-4.456;2023-03-01T04:54:31;3.33;69.07
74178;DHT22;62540;48.456;-4.456;2023-03-01T04:56:57;3.32;68.72
74178;DHT22;62540;48.456;-4.456;2023-03-01T04:59:23;3.34;68.64
74178;DHT22;62540;48.456;-4.456;2023-03-01T05:01:49;3.37;68.57
74178;DHT22;62540;48.456;-4.456;2023-03-01T05:04:15;3.37;68.74
74178;DHT22;62540;48.456;-4.456;2023-03-01T05:06:40;3.37;68.41
74178;DHT22;62540;48.456;-4.456;2023-03-01T05:09:06;3.36;68.52
74178;DHT22;62540;48.456;-4.456;2023-03-01T05:11:31;3.37;68.39
74178;DHT22;62540;48.456;-4.456;2023-03-01T05:14:02;3.34;68.04
74178;DHT22;62540;48.456;-4.456;2023-03-01T05:16:27;3.32;67.98
74178;DHT22;62540;48.456;-4.456;2023-03-01T05:18:53;3.30;68.08
74178;DHT22;62540;48.456;-4.456;2023-03-01T05:21:20;3.32;68.11
74178;DHT22;62540;48.456;-4.456;2023-03-01T05:23:46;3.33;68.17
74178;DHT22;62540;48.456;-4.456;2023-03-01T05:26:14;3.32;68.07
74178;DHT22;62540;48.456;-4.456;2023-03-01T05:28:40;3.33;68.40
74178;DHT22;62540;48.456;-4.456;2023-03-01T05:31:06;3.32;68.09
74178;DHT22;62540;48.456;-4.456;2023-03-01T05:33:38;3.30;68.28
74178;DHT22;62540;48.456;-4.456;2023-03-01T05:36:04;3.30;68.39
74178;DHT22;62540;48.456;-4.456;2023-03-01T05:38:30;3.30;68.40
74178;DHT22;62540;48.456;-4.456;2023-03-01T05:40:56;3.30;68.39
74178;DHT22;62540;48.456;-4.456;2023-03-01T05:43:21;3.34;68.37
74178;DHT22;62540;48.456;-4.456;2023-03-01T05:45:46;3.34;68.35
74178;DHT22;62540;48.456;-4.456;2023-03-01T05:48:13;3.37;68.42
74178;DHT22;62540;48.456;-4.456;2023-03-01T05:50:43;3.40;68.28
74178;DHT22;62540;48.456;-4.456;2023-03-01T05:53:15;3.40;68.15
74178;DHT22;62540;48.456;-4.456;2023-03-01T05:55:42;3.40;68.16
74178;DHT22;62540;48.456;-4.456;2023-03-01T05:58:12;3.44;68.05
74178;DHT22;62540;48.456;-4.456;2023-03-01T06:00:39;3.43;68.00
74178;DHT22;62540;48.456;-4.456;2023-03-01T06:03:05;3.40;67.94
74178;DHT22;62540;48.456;-4.456;2023-03-01T06:05:30;3.36;67.81
74178;DHT22;62540;48.456;-4.456;2023-03-01T06:07:59;3.36;67.77
74178;DHT22;62540;48.456;-4.456;2023-03-01T06:10:25;3.29;67.51
74178;DHT22;62540;48.456;-4.456;2023-03-01T06:12:50;3.29;67.60
74178;DHT22;62540;48.456;-4.456;2023-03-01T06:15:16;3.27;67.60
74178;DHT22;62540;48.456;-4.456;2023-03-01T06:17:45;3.24;67.26
74178;DHT22;62540;48.456;-4.456;2023-03-01T06:20:17;3.20;67.51
74178;DHT22;62540;48.456;-4.456;2023-03-01T06:22:43;3.20;67.57
74178;DHT22;62540;48.456;-4.456;2023-03-01T06:25:16;3.13;67.47
74178;DHT22;62540;48.456;-4.456;2023-03-01T06:27:42;3.15;67.65
74178;DHT22;62540;48.456;-4.456;2023-03-01T06:30:09;3.13;67.58
74178;DHT22;62540;48.456;-4.456;2023-03-01T06:32:36;3.09;67.68
74178;DHT22;62540;48.456;-4.456;2023-03-01T06:35:02;3.09;67.81
74178;DHT22;62540;48.456;-4.456;2023-03-01T06:37:28;3.09;67.74
74178;DHT22;62540;48.456;-4.456;2023-03-01T06:39:53;3.11;67.86
74178;DHT22;62540;48.456;-4.456;2023-03-01T06:42:19;3.09;67.86
74178;DHT22;62540;48.456;-4.456;2023-03-01T06:44:44;3.08;67.75
74178;DHT22;62540;48.456;-4.456;2023-03-01T06:47:11;3.09;67.67
74178;DHT22;62540;48.456;-4.456;2023-03-01T06:49:36;3.09;67.84
74178;DHT22;62540;48.456;-4.456;2023-03-01T06:52:01;3.12;67.97
74178;DHT22;62540;48.456;-4.456;2023-03-01T06:54:27;3.19;67.84
74178;DHT22;62540;48.456;-4.456;2023-03-01T06:56:52;3.23;67.80
74178;DHT22;62540;48.456;-4.456;2023-03-01T06:59:18;3.26;68.10
74178;DHT22;62540;48.456;-4.456;2023-03-01T07:01:43;3.26;68.26
74178;DHT22;62540;48.456;-4.456;2023-03-01T07:04:10;3.30;68.17
74178;DHT22;62540;48.456;-4.456;2023-03-01T07:06:36;3.34;68.21
74178;DHT22;62540;48.456;-4.456;2023-03-01T07:09:01;3.36;68.27
74178;DHT22;62540;48.456;-4.456;2023-03-01T07:11:27;3.39;67.35
74178;DHT22;62540;48.456;-4.456;2023-03-01T07:13:52;3.43;67.46
74178;DHT22;62540;48.456;-4.456;2023-03-01T07:16:17;3.44;67.45
74178;DHT22;62540;48.456;-4.456;2023-03-01T07:18:43;3.50;67.26
74178;DHT22;62540;48.456;-4.456;2023-03-01T07:21:12;3.56;67.48
74178;DHT22;62540;48.456;-4.456;2023-03-01T07:23:38;3.63;67.18
74178;DHT22;62540;48.456;-4.456;2023-03-01T07:26:04;3.71;66.82
74178;DHT22;62540;48.456;-4.456;2023-03-01T07:28:29;3.75;66.32
74178;DHT22;62540;48.456;-4.456;2023-03-01T07:31:00;3.85;66.71
74178;DHT22;62540;48.456;-4.456;2023-03-01T07:33:26;3.92;67.05
74178;DHT22;62540;48.456;-4.456;2023-03-01T07:35:58;3.94;67.29
74178;DHT22;62540;48.456;-4.456;2023-03-01T07:38:24;3.97;67.17
74178;DHT22;62540;48.456;-4.456;2023-03-01T07:40:50;4.01;67.23
74178;DHT22;62540;48.456;-4.456;2023-03-01T07:43:15;4.06;67.47
74178;DHT22;62540;48.456;-4.456;2023-03-01T07:45:41;4.15;67.67
74178;DHT22;62540;48.456;-4.456;2023-03-01T07:48:06;4.30;67.71
74178;DHT22;62540;48.456;-4.456;2023-03-01T07:50:31;4.49;67.26
74178;DHT22;62540;48.456;-4.456;2023-03-01T07:52:57;4.63;66.96
74178;DHT22;62540;48.456;-4.456;2023-03-01T07:55:22;4.77;66.86
74178;DHT22;62540;48.456;-4.456;2023-03-01T07:57:47;4.98;66.98
74178;DHT22;62540;48.456;-4.456;2023-03-01T08:00:13;5.24;66.74
74178;DHT22;62540;48.456;-4.456;2023-03-01T08:02:38;5.57;66.19
74178;DHT22;62540;48.456;-4.456;2023-03-01T08:05:07;5.91;65.61
74178;DHT22;62540;48.456;-4.456;2023-03-01T08:07:32;6.29;64.17
74178;DHT22;62540;48.456;-4.456;2023-03-01T08:09:58;6.66;62.94
74178;DHT22;62540;48.456;-4.456;2023-03-01T08:12:23;6.99;61.22
74178;DHT22;62540;48.456;-4.456;2023-03-01T08:14:49;7.35;60.73
74178;DHT22;62540;48.456;-4.456;2023-03-01T08:17:14;7.68;59.19
74178;DHT22;62540;48.456;-4.456;2023-03-01T08:19:39;7.86;58.13
74178;DHT22;62540;48.456;-4.456;2023-03-01T08:22:05;8.13;58.47
74178;DHT22;62540;48.456;-4.456;2023-03-01T08:24:30;8.48;57.47
74178;DHT22;62540;48.456;-4.456;2023-03-01T08:26:56;8.79;56.47
74178;DHT22;62540;48.456;-4.456;2023-03-01T08:29:22;9.08;55.80
74178;DHT22;62540;48.456;-4.456;2023-03-01T08:31:49;9.24;56.08
74178;DHT22;62540;48.456;-4.456;2023-03-01T08:34:17;8.98;55.38
74178;DHT22;62540;48.456;-4.456;2023-03-01T08:36:44;8.83;55.82
74178;DHT22;62540;48.456;-4.456;2023-03-01T08:39:14;8.60;56.01
74178;DHT22;62540;48.456;-4.456;2023-03-01T08:41:41;8.38;55.82
74178;DHT22;62540;48.456;-4.456;2023-03-01T08:44:06;8.36;56.55
74178;DHT22;62540;48.456;-4.456;2023-03-01T08:46:38;8.27;57.02
74178;DHT22;62540;48.456;-4.456;2023-03-01T08:49:09;8.19;57.08
74178;DHT22;62540;48.456;-4.456;2023-03-01T08:51:36;8.03;56.20
74178;DHT22;62540;48.456;-4.456;2023-03-01T08:54:15;7.87;58.02
74178;DHT22;62540;48.456;-4.456;2023-03-01T08:56:41;7.78;57.28
74178;DHT22;62540;48.456;-4.456;2023-03-01T08:59:07;7.59;57.33
74178;DHT22;62540;48.456;-4.456;2023-03-01T09:01:33;7.51;56.37
74178;DHT22;62540;48.456;-4.456;2023-03-01T09:03:58;7.44;58.02
74178;DHT22;62540;48.456;-4.456;2023-03-01T09:06:24;7.45;58.09
74178;DHT22;62540;48.456;-4.456;2023-03-01T09:08:50;7.34;57.09
74178;DHT22;62540;48.456;-4.456;2023-03-01T09:11:18;7.32;58.34
74178;DHT22;62540;48.456;-4.456;2023-03-01T09:13:45;7.28;58.47
74178;DHT22;62540;48.456;-4.456;2023-03-01T09:16:13;7.31;59.71
74178;DHT22;62540;48.456;-4.456;2023-03-01T09:18:39;7.24;58.68
74178;DHT22;62540;48.456;-4.456;2023-03-01T09:21:07;7.23;58.23
74178;DHT22;62540;48.456;-4.456;2023-03-01T09:23:34;7.15;58.50
74178;DHT22;62540;48.456;-4.456;2023-03-01T09:26:02;7.13;58.27
74178;DHT22;62540;48.456;-4.456;2023-03-01T09:28:27;7.17;58.80
74178;DHT22;62540;48.456;-4.456;2023-03-01T09:30:53;7.21;58.76
74178;DHT22;62540;48.456;-4.456;2023-03-01T09:33:18;7.27;59.16
74178;DHT22;62540;48.456;-4.456;2023-03-01T09:35:44;7.35;58.45
74178;DHT22;62540;48.456;-4.456;2023-03-01T09:38:13;7.43;59.04
74178;DHT22;62540;48.456;-4.456;2023-03-01T09:40:43;7.48;59.12
74178;DHT22;62540;48.456;-4.456;2023-03-01T09:43:41;7.45;58.78
74178;DHT22;62540;48.456;-4.456;2023-03-01T09:46:11;7.45;57.63
74178;DHT22;62540;48.456;-4.456;2023-03-01T09:48:43;7.44;57.91
74178;DHT22;62540;48.456;-4.456;2023-03-01T09:51:18;7.44;57.64
74178;DHT22;62540;48.456;-4.456;2023-03-01T09:53:44;7.44;58.68
74178;DHT22;62540;48.456;-4.456;2023-03-01T09:56:20;7.44;57.26
74178;DHT22;62540;48.456;-4.456;2023-03-01T09:58:53;7.44;58.82
74178;DHT22;62540;48.456;-4.456;2023-03-01T10:01:45;7.43;57.84
74178;DHT22;62540;48.456;-4.456;2023-03-01T10:09:38;7.52;58.70
74178;DHT22;62540;48.456;-4.456;2023-03-01T10:12:10;7.47;58.39
74178;DHT22;62540;48.456;-4.456;2023-03-01T10:14:40;7.50;59.01
74178;DHT22;62540;48.456;-4.456;2023-03-01T10:19:55;7.69;59.97
74178;DHT22;62540;48.456;-4.456;2023-03-01T10:22:28;7.78;58.79
74178;DHT22;62540;48.456;-4.456;2023-03-01T10:24:57;7.93;58.61
74178;DHT22;62540;48.456;-4.456;2023-03-01T10:27:36;8.12;59.30
74178;DHT22;62540;48.456;-4.456;2023-03-01T10:30:16;8.26;58.47
74178;DHT22;62540;48.456;-4.456;2023-03-01T10:32:43;8.23;57.20
74178;DHT22;62540;48.456;-4.456;2023-03-01T10:35:35;8.23;57.86
74178;DHT22;62540;48.456;-4.456;2023-03-01T10:38:05;8.23;58.53
74178;DHT22;62540;48.456;-4.456;2023-03-01T10:40:32;8.21;58.00
74178;DHT22;62540;48.456;-4.456;2023-03-01T10:43:00;8.27;57.47
74178;DHT22;62540;48.456;-4.456;2023-03-01T10:48:15;8.38;57.44
74178;DHT22;62540;48.456;-4.456;2023-03-01T10:50:45;8.47;58.53
74178;DHT22;62540;48.456;-4.456;2023-03-01T10:53:35;8.45;58.08
74178;DHT22;62540;48.456;-4.456;2023-03-01T10:58:34;8.57;57.92
74178;DHT22;62540;48.456;-4.456;2023-03-01T11:01:09;8.64;57.40
74178;DHT22;62540;48.456;-4.456;2023-03-01T11:04:13;8.67;57.35
74178;DHT22;62540;48.456;-4.456;2023-03-01T11:06:41;8.71;58.46
74178;DHT22;62540;48.456;-4.456;2023-03-01T11:09:20;8.69;57.75
74178;DHT22;62540;48.456;-4.456;2023-03-01T11:11:46;8.69;58.27
74178;DHT22;62540;48.456;-4.456;2023-03-01T11:14:27;8.75;58.41
74178;DHT22;62540;48.456;-4.456;2023-03-01T11:17:00;8.82;57.96
74178;DHT22;62540;48.456;-4.456;2023-03-01T11:19:26;8.83;58.35
74178;DHT22;62540;48.456;-4.456;2023-03-01T11:21:57;8.82;58.46
74178;DHT22;62540;48.456;-4.456;2023-03-01T11:24:30;9.02;58.18
74178;DHT22;62540;48.456;-4.456;2023-03-01T11:27:00;9.43;57.63
74178;DHT22;62540;48.456;-4.456;2023-03-01T11:29:32;9.87;58.19
74178;DHT22;62540;48.456;-4.456;2023-03-01T11:32:04;10.22;56.84
74178;DHT22;62540;48.456;-4.456;2023-03-01T11:37:28;10.50;56.12
74178;DHT22;62540;48.456;-4.456;2023-03-01T11:40:10;10.43;53.49
74178;DHT22;62540;48.456;-4.456;2023-03-01T11:45:08;10.39;54.98
74178;DHT22;62540;48.456;-4.456;2023-03-01T11:56:09;10.15;53.88
74178;DHT22;62540;48.456;-4.456;2023-03-01T11:58:40;10.15;54.27
74178;DHT22;62540;48.456;-4.456;2023-03-01T12:06:34;10.13;55.50
74178;DHT22;62540;48.456;-4.456;2023-03-01T12:17:02;10.13;54.65
74178;DHT22;62540;48.456;-4.456;2023-03-01T12:22:32;10.35;55.57
74178;DHT22;62540;48.456;-4.456;2023-03-01T12:36:54;10.09;55.27
74178;DHT22;62540;48.456;-4.456;2023-03-01T12:39:35;10.10;55.81
74178;DHT22;62540;48.456;-4.456;2023-03-01T12:44:45;10.03;55.30
74178;DHT22;62540;48.456;-4.456;2023-03-01T12:47:19;10.02;56.52
74178;DHT22;62540;48.456;-4.456;2023-03-01T12:49:54;9.94;55.59
74178;DHT22;62540;48.456;-4.456;2023-03-01T12:52:38;9.94;55.97
74178;DHT22;62540;48.456;-4.456;2023-03-01T12:55:29;9.91;55.62
74178;DHT22;62540;48.456;-4.456;2023-03-01T12:58:09;9.85;56.24
74178;DHT22;62540;48.456;-4.456;2023-03-01T13:03:20;9.95;56.90
74178;DHT22;62540;48.456;-4.456;2023-03-01T13:06:23;10.01;56.65
74178;DHT22;62540;48.456;-4.456;2023-03-01T13:09:06;9.92;55.57
74178;DHT22;62540;48.456;-4.456;2023-03-01T13:11:33;9.87;56.52
74178;DHT22;62540;48.456;-4.456;2023-03-01T13:16:50;9.79;56.36
74178;DHT22;62540;48.456;-4.456;2023-03-01T13:19:21;9.84;56.99
74178;DHT22;62540;48.456;-4.456;2023-03-01T13:21:48;9.87;57.30
74178;DHT22;62540;48.456;-4.456;2023-03-01T13:24:38;9.89;57.03
74178;DHT22;62540;48.456;-4.456;2023-03-01T13:29:54;9.79;57.68
74178;DHT22;62540;48.456;-4.456;2023-03-01T13:32:29;9.75;57.17
74178;DHT22;62540;48.456;-4.456;2023-03-01T13:37:42;9.75;57.77
74178;DHT22;62540;48.456;-4.456;2023-03-01T13:42:54;9.65;58.29
74178;DHT22;62540;48.456;-4.456;2023-03-01T13:47:58;9.78;58.60
74178;DHT22;62540;48.456;-4.456;2023-03-01T13:50:28;9.81;58.60
74178;DHT22;62540;48.456;-4.456;2023-03-01T13:53:02;9.79;58.31
74178;DHT22;62540;48.456;-4.456;2023-03-01T13:55:44;9.70;58.29
74178;DHT22;62540;48.456;-4.456;2023-03-01T13:58:22;9.62;58.70
74178;DHT22;62540;48.456;-4.456;2023-03-01T14:00:58;9.60;59.24
74178;DHT22;62540;48.456;-4.456;2023-03-01T14:03:25;9.58;58.67
74178;DHT22;62540;48.456;-4.456;2023-03-01T14:06:15;9.50;58.76
74178;DHT22;62540;48.456;-4.456;2023-03-01T14:08:44;9.44;59.57
74178;DHT22;62540;48.456;-4.456;2023-03-01T14:14:17;9.44;60.62
74178;DHT22;62540;48.456;-4.456;2023-03-01T14:19:23;9.48;60.07
74178;DHT22;62540;48.456;-4.456;2023-03-01T14:22:23;9.44;60.38
74178;DHT22;62540;48.456;-4.456;2023-03-01T14:24:52;9.31;60.84
74178;DHT22;62540;48.456;-4.456;2023-03-01T14:27:20;9.20;61.19
74178;DHT22;62540;48.456;-4.456;2023-03-01T14:29:58;9.15;61.37
74178;DHT22;62540;48.456;-4.456;2023-03-01T14:32:29;9.16;61.38
74178;DHT22;62540;48.456;-4.456;2023-03-01T14:34:56;9.18;61.19
74178;DHT22;62540;48.456;-4.456;2023-03-01T14:37:30;9.18;60.45
74178;DHT22;62540;48.456;-4.456;2023-03-01T14:39:58;9.15;60.94
74178;DHT22;62540;48.456;-4.456;2023-03-01T14:42:28;9.16;61.14
74178;DHT22;62540;48.456;-4.456;2023-03-01T14:44:56;9.15;60.48
74178;DHT22;62540;48.456;-4.456;2023-03-01T14:47:29;9.08;60.56
74178;DHT22;62540;48.456;-4.456;2023-03-01T14:50:02;8.99;60.37
74178;DHT22;62540;48.456;-4.456;2023-03-01T14:52:42;9.02;60.85
74178;DHT22;62540;48.456;-4.456;2023-03-01T14:55:21;9.03;60.72
74178;DHT22;62540;48.456;-4.456;2023-03-01T14:57:51;9.02;59.76
74178;DHT22;62540;48.456;-4.456;2023-03-01T15:00:23;9.02;59.53
74178;DHT22;62540;48.456;-4.456;2023-03-01T15:02:51;9.02;59.49
74178;DHT22;62540;48.456;-4.456;2023-03-01T15:05:29;9.01;59.58
74178;DHT22;62540;48.456;-4.456;2023-03-01T15:07:58;9.01;59.41
74178;DHT22;62540;48.456;-4.456;2023-03-01T15:10:32;8.96;58.43
74178;DHT22;62540;48.456;-4.456;2023-03-01T15:13:21;8.85;58.52
74178;DHT22;62540;48.456;-4.456;2023-03-01T15:15:47;8.89;58.53
74178;DHT22;62540;48.456;-4.456;2023-03-01T15:18:21;8.95;58.85
74178;DHT22;62540;48.456;-4.456;2023-03-01T15:20:49;8.96;58.48
74178;DHT22;62540;48.456;-4.456;2023-03-01T15:23:28;8.93;57.40
74178;DHT22;62540;48.456;-4.456;2023-03-01T15:25:55;8.88;57.92
74178;DHT22;62540;48.456;-4.456;2023-03-01T15:28:29;8.91;58.33
74178;DHT22;62540;48.456;-4.456;2023-03-01T15:30:58;8.92;58.20
74178;DHT22;62540;48.456;-4.456;2023-03-01T15:35:53;8.92;58.73
74178;DHT22;62540;48.456;-4.456;2023-03-01T15:38:35;8.86;59.37
74178;DHT22;62540;48.456;-4.456;2023-03-01T15:41:05;8.85;59.56
74178;DHT22;62540;48.456;-4.456;2023-03-01T15:43:45;8.85;59.84
74178;DHT22;62540;48.456;-4.456;2023-03-01T15:46:25;8.85;59.96
74178;DHT22;62540;48.456;-4.456;2023-03-01T15:48:54;8.79;60.63
74178;DHT22;62540;48.456;-4.456;2023-03-01T15:51:27;8.71;61.15
74178;DHT22;62540;48.456;-4.456;2023-03-01T15:53:54;8.69;61.44
74178;DHT22;62540;48.456;-4.456;2023-03-01T15:56:20;8.72;61.43
74178;DHT22;62540;48.456;-4.456;2023-03-01T15:58:45;8.73;61.84
74178;DHT22;62540;48.456;-4.456;2023-03-01T16:01:15;8.72;61.80
74178;DHT22;62540;48.456;-4.456;2023-03-01T16:03:42;8.71;61.63
74178;DHT22;62540;48.456;-4.456;2023-03-01T16:06:09;8.71;61.46
74178;DHT22;62540;48.456;-4.456;2023-03-01T16:08:35;8.68;61.62
74178;DHT22;62540;48.456;-4.456;2023-03-01T16:11:00;8.62;61.41
74178;DHT22;62540;48.456;-4.456;2023-03-01T16:13:30;8.62;61.47
74178;DHT22;62540;48.456;-4.456;2023-03-01T16:15:56;8.62;61.46
74178;DHT22;62540;48.456;-4.456;2023-03-01T16:18:22;8.57;60.85
74178;DHT22;62540;48.456;-4.456;2023-03-01T16:20:47;8.57;60.83
74178;DHT22;62540;48.456;-4.456;2023-03-01T16:23:14;8.54;61.07
74178;DHT22;62540;48.456;-4.456;2023-03-01T16:25:40;8.52;60.84
74178;DHT22;62540;48.456;-4.456;2023-03-01T16:28:06;8.52;60.59
74178;DHT22;62540;48.456;-4.456;2023-03-01T16:30:35;8.58;60.66
74178;DHT22;62540;48.456;-4.456;2023-03-01T16:33:01;8.65;60.69
74178;DHT22;62540;48.456;-4.456;2023-03-01T16:35:27;8.69;60.86
74178;DHT22;62540;48.456;-4.456;2023-03-01T16:37:52;8.65;60.73
74178;DHT22;62540;48.456;-4.456;2023-03-01T16:40:22;8.64;60.53
74178;DHT22;62540;48.456;-4.456;2023-03-01T16:42:48;8.67;60.03
74178;DHT22;62540;48.456;-4.456;2023-03-01T16:45:15;8.65;60.06
74178;DHT22;62540;48.456;-4.456;2023-03-01T16:47:40;8.62;60.14
74178;DHT22;62540;48.456;-4.456;2023-03-01T16:50:06;8.57;59.74
74178;DHT22;62540;48.456;-4.456;2023-03-01T16:52:33;8.55;60.01
74178;DHT22;62540;48.456;-4.456;2023-03-01T16:54:58;8.50;60.11
74178;DHT22;62540;48.456;-4.456;2023-03-01T16:57:24;8.45;60.54
74178;DHT22;62540;48.456;-4.456;2023-03-01T16:59:52;8.43;60.48
74178;DHT22;62540;48.456;-4.456;2023-03-01T17:02:20;8.40;60.95
74178;DHT22;62540;48.456;-4.456;2023-03-01T17:04:52;8.40;60.89
74178;DHT22;62540;48.456;-4.456;2023-03-01T17:07:18;8.34;60.85
74178;DHT22;62540;48.456;-4.456;2023-03-01T17:09:44;8.34;60.95
74178;DHT22;62540;48.456;-4.456;2023-03-01T17:12:11;8.31;61.00